Vinga, Sweden

12:47 AM CEST on October 01, 2014 (GMT +0200)
Kalvsund, Gothenburg, Sweden | Change Station
CLOSE
Current Station
Personal Weather Station
Location: Kalvsund, VäSTRA GöTALANDS LäN
Elevation: 16 ft
Nearby Weather Stations

Elev 16 ft 57.71 °N, 11.68 °E | Updated 2 minutes ago

Clear
Clear
51.8 °F
Feels Like 51.8 °F
N
6.0
Wind Variable Wind from SE
Gusts 10.7 mph

Today
High -- | Low -- °F
--% Chance of Precip.
Yesterday
High -- | Low -- °F
Precip. -- in
7:17 AM 6:48 PM
Waxing Crescent, 41% visible
Pressure 30.33 in
Visibility -9999.0 miles
Clouds
Dew Point 44 °F
Humidity 75%
Rainfall 0.00 in
Snow Depth Not available.
UV Not available.
Pollen Not available.
Air Quality Not available.
Flu Activity Not available.
METAR ESGP 302220Z 10006KT CAVOK 09/04 Q1027

More Conditions Fewer Conditions

Pressure 30.33 in
Visibility -9999.0 miles
Clouds
Dew Point 44 °F
Humidity 75%
Rainfall 0.00 in
Snow Depth Not available.
UV Not available.
Pollen Not available.
Air Quality Not available.
Flu Activity Not available.
METAR ESGP 302220Z 10006KT CAVOK 09/04 Q1027

More Conditions Fewer Conditions

10-Day Weather Forecast

Almanac

Astronomy

Oct. 01, 2014 Rise Set
Actual Time 7:17 AM CEST 6:48 PM CEST
Civil Twilight 6:38 AM CEST 7:26 PM CEST
Nautical Twilight 5:52 AM CEST 8:12 PM CEST
Astronomical Twilight 5:05 AM CEST 8:59 PM CEST
Moon 2:59 PM CEST (10/1) 11:07 PM CEST (10/1)
Length of Visible Light 12h 48m
Length of Day
11h 31m
Tomorrow will be 4m 54s shorter.
Waxing Crescent, 41% of the Moon is Illuminated
Sep 30
Waxing Crescent
Oct 1
First Quarter
Oct 8
Full
Oct 15
Last Quarter
Oct 23
New

Yesterday's Extremes

Country Highs Country Lows

Community

WunderPhotos

Upload Photos

1,757,767 photos uploaded!

Nearby

Snow Depth

Not available.

Earthquake Activity

City Distance Mag. Time & Date
No recent earthquake activity has been reported nearby.
Minimum magnitude displayed is 2.5.

Coastal Water Temperatures

Place Temperature
No Stations Reporting

Nearby Weather Stations